sensor_id;sensor_type;location;lat;lon;timestamp;temperature;humidity
21811;DHT22;11067;48.788;9.208;2023-03-18T00:01:53;12.60;99.90
21811;DHT22;11067;48.788;9.208;2023-03-18T00:04:19;12.60;99.90
21811;DHT22;11067;48.788;9.208;2023-03-18T00:06:46;12.50;99.90
21811;DHT22;11067;48.788;9.208;2023-03-18T00:09:12;12.60;99.90
21811;DHT22;11067;48.788;9.208;2023-03-18T00:11:38;12.60;99.90
21811;DHT22;11067;48.788;9.208;2023-03-18T00:14:05;12.60;99.90
21811;DHT22;11067;48.788;9.208;2023-03-18T00:16:33;12.60;99.90
21811;DHT22;11067;48.788;9.208;2023-03-18T00:19:00;12.70;99.90
21811;DHT22;11067;48.788;9.208;2023-03-18T00:21:27;12.70;99.90
21811;DHT22;11067;48.788;9.208;2023-03-18T00:23:54;12.60;99.90
21811;DHT22;11067;48.788;9.208;2023-03-18T00:26:22;12.60;99.90
21811;DHT22;11067;48.788;9.208;2023-03-18T00:28:47;12.50;99.90
21811;DHT22;11067;48.788;9.208;2023-03-18T00:31:13;12.40;99.90
21811;DHT22;11067;48.788;9.208;2023-03-18T00:33:40;12.40;99.90
21811;DHT22;11067;48.788;9.208;2023-03-18T00:36:08;12.30;99.90
21811;DHT22;11067;48.788;9.208;2023-03-18T00:38:42;12.20;99.90
21811;DHT22;11067;48.788;9.208;2023-03-18T00:41:08;12.10;99.90
21811;DHT22;11067;48.788;9.208;2023-03-18T00:43:44;12.10;99.90
21811;DHT22;11067;48.788;9.208;2023-03-18T00:46:22;11.90;99.90
21811;DHT22;11067;48.788;9.208;2023-03-18T00:48:49;12.00;99.90
21811;DHT22;11067;48.788;9.208;2023-03-18T00:51:16;12.20;99.90
21811;DHT22;11067;48.788;9.208;2023-03-18T00:53:43;12.10;99.90
21811;DHT22;11067;48.788;9.208;2023-03-18T00:56:10;12.20;99.90
21811;DHT22;11067;48.788;9.208;2023-03-18T00:58:36;12.20;99.90
21811;DHT22;11067;48.788;9.208;2023-03-18T01:01:05;12.10;99.90
21811;DHT22;11067;48.788;9.208;2023-03-18T01:03:31;12.00;99.90
21811;DHT22;11067;48.788;9.208;2023-03-18T01:05:58;12.10;99.90
21811;DHT22;11067;48.788;9.208;2023-03-18T01:08:24;12.20;99.90
21811;DHT22;11067;48.788;9.208;2023-03-18T01:10:49;12.10;99.90
21811;DHT22;11067;48.788;9.208;2023-03-18T01:13:15;12.10;99.90
21811;DHT22;11067;48.788;9.208;2023-03-18T01:15:41;12.00;99.90
21811;DHT22;11067;48.788;9.208;2023-03-18T01:18:08;12.00;99.90
21811;DHT22;11067;48.788;9.208;2023-03-18T01:20:36;11.80;99.90
21811;DHT22;11067;48.788;9.208;2023-03-18T01:23:02;11.80;99.90
21811;DHT22;11067;48.788;9.208;2023-03-18T01:25:28;11.70;99.90
21811;DHT22;11067;48.788;9.208;2023-03-18T01:27:53;11.60;99.90
21811;DHT22;11067;48.788;9.208;2023-03-18T01:30:20;11.50;99.90
21811;DHT22;11067;48.788;9.208;2023-03-18T01:32:47;11.50;99.90
21811;DHT22;11067;48.788;9.208;2023-03-18T01:35:14;11.60;99.90
21811;DHT22;11067;48.788;9.208;2023-03-18T01:37:39;11.60;99.90
21811;DHT22;11067;48.788;9.208;2023-03-18T01:40:08;11.70;99.90
21811;DHT22;11067;48.788;9.208;2023-03-18T01:42:34;11.80;99.90
21811;DHT22;11067;48.788;9.208;2023-03-18T01:45:18;11.70;99.90
21811;DHT22;11067;48.788;9.208;2023-03-18T01:47:46;11.70;99.90
21811;DHT22;11067;48.788;9.208;2023-03-18T01:50:15;11.30;99.90
21811;DHT22;11067;48.788;9.208;2023-03-18T01:52:43;11.10;99.90
21811;DHT22;11067;48.788;9.208;2023-03-18T01:55:21;11.00;99.90
21811;DHT22;11067;48.788;9.208;2023-03-18T01:57:47;10.90;99.90
21811;DHT22;11067;48.788;9.208;2023-03-18T02:00:15;10.90;99.90
21811;DHT22;11067;48.788;9.208;2023-03-18T02:02:42;10.90;99.90
21811;DHT22;11067;48.788;9.208;2023-03-18T02:05:10;10.90;99.90
21811;DHT22;11067;48.788;9.208;2023-03-18T02:07:39;10.90;99.90
21811;DHT22;11067;48.788;9.208;2023-03-18T02:10:09;10.90;99.90
21811;DHT22;11067;48.788;9.208;2023-03-18T02:12:37;10.90;99.90
21811;DHT22;11067;48.788;9.208;2023-03-18T02:15:07;11.00;99.90
21811;DHT22;11067;48.788;9.208;2023-03-18T02:17:38;11.00;99.90
21811;DHT22;11067;48.788;9.208;2023-03-18T02:20:28;11.00;99.90
21811;DHT22;11067;48.788;9.208;2023-03-18T02:23:22;11.50;99.90
21811;DHT22;11067;48.788;9.208;2023-03-18T02:28:43;12.10;99.90
21811;DHT22;11067;48.788;9.208;2023-03-18T02:31:12;12.10;99.90
21811;DHT22;11067;48.788;9.208;2023-03-18T02:33:39;12.30;99.90
21811;DHT22;11067;48.788;9.208;2023-03-18T02:36:11;12.30;99.90
21811;DHT22;11067;48.788;9.208;2023-03-18T02:38:42;12.20;99.90
21811;DHT22;11067;48.788;9.208;2023-03-18T02:41:23;12.20;99.90
21811;DHT22;11067;48.788;9.208;2023-03-18T02:43:49;12.30;99.90
21811;DHT22;11067;48.788;9.208;2023-03-18T02:46:28;12.00;99.90
21811;DHT22;11067;48.788;9.208;2023-03-18T02:48:56;11.70;99.90
21811;DHT22;11067;48.788;9.208;2023-03-18T02:51:22;11.50;99.90
21811;DHT22;11067;48.788;9.208;2023-03-18T02:53:49;11.30;99.90
21811;DHT22;11067;48.788;9.208;2023-03-18T02:56:15;11.30;99.90
21811;DHT22;11067;48.788;9.208;2023-03-18T02:58:42;11.20;99.90
21811;DHT22;11067;48.788;9.208;2023-03-18T03:01:08;11.30;99.90
21811;DHT22;11067;48.788;9.208;2023-03-18T03:03:35;11.50;99.90
21811;DHT22;11067;48.788;9.208;2023-03-18T03:06:01;11.70;99.90
21811;DHT22;11067;48.788;9.208;2023-03-18T03:08:27;11.70;99.90
21811;DHT22;11067;48.788;9.208;2023-03-18T03:10:53;11.90;99.90
21811;DHT22;11067;48.788;9.208;2023-03-18T03:13:21;11.80;99.90
21811;DHT22;11067;48.788;9.208;2023-03-18T03:15:47;11.80;99.90
21811;DHT22;11067;48.788;9.208;2023-03-18T03:18:14;11.70;99.90
21811;DHT22;11067;48.788;9.208;2023-03-18T03:20:40;11.70;99.90
21811;DHT22;11067;48.788;9.208;2023-03-18T03:23:08;11.60;99.90
21811;DHT22;11067;48.788;9.208;2023-03-18T03:25:34;11.70;99.90
21811;DHT22;11067;48.788;9.208;2023-03-18T03:28:01;11.70;99.90
21811;DHT22;11067;48.788;9.208;2023-03-18T03:30:27;11.60;99.90
21811;DHT22;11067;48.788;9.208;2023-03-18T03:32:53;11.50;99.90
21811;DHT22;11067;48.788;9.208;2023-03-18T03:35:20;11.30;99.90
21811;DHT22;11067;48.788;9.208;2023-03-18T03:37:45;11.50;99.90
21811;DHT22;11067;48.788;9.208;2023-03-18T03:40:14;11.50;99.90
21811;DHT22;11067;48.788;9.208;2023-03-18T03:42:42;11.50;99.90
21811;DHT22;11067;48.788;9.208;2023-03-18T03:45:10;11.30;99.90
21811;DHT22;11067;48.788;9.208;2023-03-18T03:47:38;10.80;99.90
21811;DHT22;11067;48.788;9.208;2023-03-18T03:50:04;10.60;99.90
21811;DHT22;11067;48.788;9.208;2023-03-18T03:52:30;10.40;99.90
21811;DHT22;11067;48.788;9.208;2023-03-18T03:54:56;10.20;99.90
21811;DHT22;11067;48.788;9.208;2023-03-18T03:57:23;10.10;99.90
21811;DHT22;11067;48.788;9.208;2023-03-18T03:59:49;10.10;99.90
21811;DHT22;11067;48.788;9.208;2023-03-18T04:02:16;9.90;99.90
21811;DHT22;11067;48.788;9.208;2023-03-18T04:04:42;9.90;99.90
21811;DHT22;11067;48.788;9.208;2023-03-18T04:07:08;9.90;99.90
21811;DHT22;11067;48.788;9.208;2023-03-18T04:09:33;9.80;99.90
21811;DHT22;11067;48.788;9.208;2023-03-18T04:12:00;9.90;99.90
21811;DHT22;11067;48.788;9.208;2023-03-18T04:14:27;9.90;99.90
21811;DHT22;11067;48.788;9.208;2023-03-18T04:16:52;9.80;99.90
21811;DHT22;11067;48.788;9.208;2023-03-18T04:19:20;9.70;99.90
21811;DHT22;11067;48.788;9.208;2023-03-18T04:21:45;9.60;99.90
21811;DHT22;11067;48.788;9.208;2023-03-18T04:24:11;9.50;99.90
21811;DHT22;11067;48.788;9.208;2023-03-18T04:26:37;9.60;99.90
21811;DHT22;11067;48.788;9.208;2023-03-18T04:29:02;9.50;99.90
21811;DHT22;11067;48.788;9.208;2023-03-18T04:31:28;9.50;99.90
21811;DHT22;11067;48.788;9.208;2023-03-18T04:33:53;9.50;99.90
21811;DHT22;11067;48.788;9.208;2023-03-18T04:36:20;9.40;99.90
21811;DHT22;11067;48.788;9.208;2023-03-18T04:38:45;9.40;99.90
21811;DHT22;11067;48.788;9.208;2023-03-18T04:41:11;9.30;99.90
21811;DHT22;11067;48.788;9.208;2023-03-18T04:43:37;9.30;99.90
21811;DHT22;11067;48.788;9.208;2023-03-18T04:46:02;9.20;99.90
21811;DHT22;11067;48.788;9.208;2023-03-18T04:48:28;9.30;99.90
21811;DHT22;11067;48.788;9.208;2023-03-18T04:50:54;9.20;99.90
21811;DHT22;11067;48.788;9.208;2023-03-18T04:53:20;9.20;99.90
21811;DHT22;11067;48.788;9.208;2023-03-18T04:55:48;9.40;99.90
21811;DHT22;11067;48.788;9.208;2023-03-18T04:58:13;9.50;99.90
21811;DHT22;11067;48.788;9.208;2023-03-18T05:00:39;9.40;99.90
21811;DHT22;11067;48.788;9.208;2023-03-18T05:03:04;9.20;99.90
21811;DHT22;11067;48.788;9.208;2023-03-18T05:05:31;9.20;99.90
21811;DHT22;11067;48.788;9.208;2023-03-18T05:07:57;9.20;99.90
21811;DHT22;11067;48.788;9.208;2023-03-18T05:10:22;9.20;99.90
21811;DHT22;11067;48.788;9.208;2023-03-18T05:12:48;9.20;99.90
21811;DHT22;11067;48.788;9.208;2023-03-18T05:15:14;9.10;99.90
21811;DHT22;11067;48.788;9.208;2023-03-18T05:17:39;9.00;99.90
21811;DHT22;11067;48.788;9.208;2023-03-18T05:20:06;9.00;99.90
21811;DHT22;11067;48.788;9.208;2023-03-18T05:22:31;8.80;99.90
21811;DHT22;11067;48.788;9.208;2023-03-18T05:24:57;8.80;99.90
21811;DHT22;11067;48.788;9.208;2023-03-18T05:27:23;8.70;99.90
21811;DHT22;11067;48.788;9.208;2023-03-18T05:29:48;8.70;99.90
21811;DHT22;11067;48.788;9.208;2023-03-18T05:32:14;8.70;99.90
21811;DHT22;11067;48.788;9.208;2023-03-18T05:34:41;8.60;99.90
21811;DHT22;11067;48.788;9.208;2023-03-18T05:37:08;8.70;99.90
21811;DHT22;11067;48.788;9.208;2023-03-18T05:39:34;8.70;99.90
21811;DHT22;11067;48.788;9.208;2023-03-18T05:42:00;8.60;99.90
21811;DHT22;11067;48.788;9.208;2023-03-18T05:44:27;8.70;99.90
21811;DHT22;11067;48.788;9.208;2023-03-18T05:46:54;8.60;99.90
21811;DHT22;11067;48.788;9.208;2023-03-18T05:49:20;8.50;99.90
21811;DHT22;11067;48.788;9.208;2023-03-18T05:51:46;8.60;99.90
21811;DHT22;11067;48.788;9.208;2023-03-18T05:54:12;8.60;99.90
21811;DHT22;11067;48.788;9.208;2023-03-18T05:56:38;8.60;99.90
21811;DHT22;11067;48.788;9.208;2023-03-18T05:59:04;8.60;99.90
21811;DHT22;11067;48.788;9.208;2023-03-18T06:01:31;8.60;99.90
21811;DHT22;11067;48.788;9.208;2023-03-18T06:03:57;8.60;99.90
21811;DHT22;11067;48.788;9.208;2023-03-18T06:06:24;8.50;99.90
21811;DHT22;11067;48.788;9.208;2023-03-18T06:08:50;8.60;99.90
21811;DHT22;11067;48.788;9.208;2023-03-18T06:11:16;8.50;99.90
21811;DHT22;11067;48.788;9.208;2023-03-18T06:13:41;8.50;99.90
21811;DHT22;11067;48.788;9.208;2023-03-18T06:16:08;8.50;99.90
21811;DHT22;11067;48.788;9.208;2023-03-18T06:18:33;8.50;99.90
21811;DHT22;11067;48.788;9.208;2023-03-18T06:20:59;8.50;99.90
21811;DHT22;11067;48.788;9.208;2023-03-18T06:23:25;8.50;99.90
21811;DHT22;11067;48.788;9.208;2023-03-18T06:25:52;8.40;99.90
21811;DHT22;11067;48.788;9.208;2023-03-18T06:28:17;8.40;99.90
21811;DHT22;11067;48.788;9.208;2023-03-18T06:30:43;8.40;99.90
21811;DHT22;11067;48.788;9.208;2023-03-18T06:33:08;8.40;99.90
21811;DHT22;11067;48.788;9.208;2023-03-18T06:35:34;8.30;99.90
21811;DHT22;11067;48.788;9.208;2023-03-18T06:38:00;8.30;99.90
21811;DHT22;11067;48.788;9.208;2023-03-18T06:40:27;8.40;99.90
21811;DHT22;11067;48.788;9.208;2023-03-18T06:42:53;8.40;99.90
21811;DHT22;11067;48.788;9.208;2023-03-18T06:45:18;8.40;99.90
21811;DHT22;11067;48.788;9.208;2023-03-18T06:47:44;8.40;99.90
21811;DHT22;11067;48.788;9.208;2023-03-18T06:50:11;8.40;99.90
21811;DHT22;11067;48.788;9.208;2023-03-18T06:52:38;8.50;99.90
21811;DHT22;11067;48.788;9.208;2023-03-18T06:55:04;8.60;99.90
21811;DHT22;11067;48.788;9.208;2023-03-18T06:57:31;8.60;99.90
21811;DHT22;11067;48.788;9.208;2023-03-18T06:59:57;8.70;99.90
21811;DHT22;11067;48.788;9.208;2023-03-18T07:02:23;8.70;99.90
21811;DHT22;11067;48.788;9.208;2023-03-18T07:04:49;8.80;99.90
21811;DHT22;11067;48.788;9.208;2023-03-18T07:07:15;8.80;99.90
21811;DHT22;11067;48.788;9.208;2023-03-18T07:09:42;8.90;99.90
21811;DHT22;11067;48.788;9.208;2023-03-18T07:12:08;9.00;99.90
21811;DHT22;11067;48.788;9.208;2023-03-18T07:14:34;9.20;99.90
21811;DHT22;11067;48.788;9.208;2023-03-18T07:17:00;9.40;99.90
21811;DHT22;11067;48.788;9.208;2023-03-18T07:19:26;9.50;99.90
21811;DHT22;11067;48.788;9.208;2023-03-18T07:21:52;9.70;99.90
21811;DHT22;11067;48.788;9.208;2023-03-18T07:24:18;9.80;99.90
21811;DHT22;11067;48.788;9.208;2023-03-18T07:26:45;9.90;99.90
21811;DHT22;11067;48.788;9.208;2023-03-18T07:29:11;10.10;99.90
21811;DHT22;11067;48.788;9.208;2023-03-18T07:31:37;10.30;99.90
21811;DHT22;11067;48.788;9.208;2023-03-18T07:34:02;10.50;99.90
21811;DHT22;11067;48.788;9.208;2023-03-18T07:36:29;10.70;99.90
21811;DHT22;11067;48.788;9.208;2023-03-18T07:38:54;10.90;99.90
21811;DHT22;11067;48.788;9.208;2023-03-18T07:41:21;11.10;99.90
21811;DHT22;11067;48.788;9.208;2023-03-18T07:43:46;11.30;99.90
21811;DHT22;11067;48.788;9.208;2023-03-18T07:46:12;11.40;99.90
21811;DHT22;11067;48.788;9.208;2023-03-18T07:48:38;11.40;99.90
21811;DHT22;11067;48.788;9.208;2023-03-18T07:51:04;11.50;99.90
21811;DHT22;11067;48.788;9.208;2023-03-18T07:53:29;11.70;99.90
21811;DHT22;11067;48.788;9.208;2023-03-18T07:55:55;11.90;99.90
21811;DHT22;11067;48.788;9.208;2023-03-18T07:58:21;12.20;99.90
21811;DHT22;11067;48.788;9.208;2023-03-18T08:00:47;12.20;99.90
21811;DHT22;11067;48.788;9.208;2023-03-18T08:03:13;12.20;99.90
21811;DHT22;11067;48.788;9.208;2023-03-18T08:05:39;12.40;99.90
21811;DHT22;11067;48.788;9.208;2023-03-18T08:08:05;12.40;99.90
21811;DHT22;11067;48.788;9.208;2023-03-18T08:10:31;12.70;99.90
21811;DHT22;11067;48.788;9.208;2023-03-18T08:12:56;12.70;99.90
21811;DHT22;11067;48.788;9.208;2023-03-18T08:15:22;12.80;99.90
21811;DHT22;11067;48.788;9.208;2023-03-18T08:17:50;12.70;99.90
21811;DHT22;11067;48.788;9.208;2023-03-18T08:20:17;12.80;99.90
21811;DHT22;11067;48.788;9.208;2023-03-18T08:22:43;12.90;99.90
21811;DHT22;11067;48.788;9.208;2023-03-18T08:25:10;13.10;99.90
21811;DHT22;11067;48.788;9.208;2023-03-18T08:27:36;13.20;99.90
21811;DHT22;11067;48.788;9.208;2023-03-18T08:30:02;13.30;99.90
21811;DHT22;11067;48.788;9.208;2023-03-18T08:32:27;13.50;99.90
21811;DHT22;11067;48.788;9.208;2023-03-18T08:34:53;13.70;99.90
21811;DHT22;11067;48.788;9.208;2023-03-18T08:37:18;13.80;99.90
21811;DHT22;11067;48.788;9.208;2023-03-18T08:39:44;13.60;99.90
21811;DHT22;11067;48.788;9.208;2023-03-18T08:42:10;13.60;99.90
21811;DHT22;11067;48.788;9.208;2023-03-18T08:44:36;13.70;99.90
21811;DHT22;11067;48.788;9.208;2023-03-18T08:47:01;13.80;99.90
21811;DHT22;11067;48.788;9.208;2023-03-18T08:49:27;14.00;99.90
21811;DHT22;11067;48.788;9.208;2023-03-18T08:51:53;13.90;99.90
21811;DHT22;11067;48.788;9.208;2023-03-18T08:54:19;14.10;99.90
21811;DHT22;11067;48.788;9.208;2023-03-18T08:56:45;14.30;99.90
21811;DHT22;11067;48.788;9.208;2023-03-18T08:59:11;14.50;99.90
21811;DHT22;11067;48.788;9.208;2023-03-18T09:01:37;14.70;99.90
21811;DHT22;11067;48.788;9.208;2023-03-18T09:04:04;15.00;99.90
21811;DHT22;11067;48.788;9.208;2023-03-18T09:06:29;14.80;99.90
21811;DHT22;11067;48.788;9.208;2023-03-18T09:08:55;14.80;99.90
21811;DHT22;11067;48.788;9.208;2023-03-18T09:11:22;15.20;99.90
21811;DHT22;11067;48.788;9.208;2023-03-18T09:13:48;15.20;99.90
21811;DHT22;11067;48.788;9.208;2023-03-18T09:16:13;15.20;99.90
21811;DHT22;11067;48.788;9.208;2023-03-18T09:18:39;15.20;99.90
21811;DHT22;11067;48.788;9.208;2023-03-18T09:21:05;15.20;99.90
21811;DHT22;11067;48.788;9.208;2023-03-18T09:23:32;15.50;99.90
21811;DHT22;11067;48.788;9.208;2023-03-18T09:25:58;15.60;99.90
21811;DHT22;11067;48.788;9.208;2023-03-18T09:28:24;15.80;99.90
21811;DHT22;11067;48.788;9.208;2023-03-18T09:30:51;15.80;99.90
21811;DHT22;11067;48.788;9.208;2023-03-18T09:33:16;15.80;99.90
21811;DHT22;11067;48.788;9.208;2023-03-18T09:35:42;16.00;99.90
21811;DHT22;11067;48.788;9.208;2023-03-18T09:38:16;16.30;99.90
21811;DHT22;11067;48.788;9.208;2023-03-18T09:46:17;16.30;99.90
21811;DHT22;11067;48.788;9.208;2023-03-18T09:53:58;16.30;99.90
21811;DHT22;11067;48.788;9.208;2023-03-18T09:56:28;16.50;99.90
21811;DHT22;11067;48.788;9.208;2023-03-18T09:59:20;16.70;99.90
21811;DHT22;11067;48.788;9.208;2023-03-18T10:01:51;16.80;99.90
21811;DHT22;11067;48.788;9.208;2023-03-18T10:04:24;16.70;99.90
21811;DHT22;11067;48.788;9.208;2023-03-18T10:07:03;16.70;99.90
21811;DHT22;11067;48.788;9.208;2023-03-18T10:09:41;16.80;99.90
21811;DHT22;11067;48.788;9.208;2023-03-18T10:12:28;17.10;99.90
21811;DHT22;11067;48.788;9.208;2023-03-18T10:15:18;17.00;99.90
21811;DHT22;11067;48.788;9.208;2023-03-18T10:20:48;17.10;99.90
21811;DHT22;11067;48.788;9.208;2023-03-18T10:23:26;17.40;99.90
21811;DHT22;11067;48.788;9.208;2023-03-18T10:25:58;17.60;99.90
21811;DHT22;11067;48.788;9.208;2023-03-18T10:34:20;17.20;99.90
21811;DHT22;11067;48.788;9.208;2023-03-18T10:37:05;17.10;99.90
21811;DHT22;11067;48.788;9.208;2023-03-18T10:39:34;17.20;99.90
21811;DHT22;11067;48.788;9.208;2023-03-18T10:42:09;17.20;99.90
21811;DHT22;11067;48.788;9.208;2023-03-18T10:44:40;17.00;99.90
21811;DHT22;11067;48.788;9.208;2023-03-18T10:47:27;17.00;99.90
21811;DHT22;11067;48.788;9.208;2023-03-18T10:50:13;17.10;99.90
21811;DHT22;11067;48.788;9.208;2023-03-18T10:52:49;17.20;99.90
21811;DHT22;11067;48.788;9.208;2023-03-18T10:55:21;17.40;99.80
21811;DHT22;11067;48.788;9.208;2023-03-18T10:57:47;17.50;98.00
21811;DHT22;11067;48.788;9.208;2023-03-18T11:00:33;17.70;97.00
21811;DHT22;11067;48.788;9.208;2023-03-18T11:02:59;17.70;97.40
21811;DHT22;11067;48.788;9.208;2023-03-18T11:05:30;17.70;99.80
21811;DHT22;11067;48.788;9.208;2023-03-18T11:08:08;17.60;98.90
21811;DHT22;11067;48.788;9.208;2023-03-18T11:10:52;17.70;99.60
21811;DHT22;11067;48.788;9.208;2023-03-18T11:13:19;17.70;96.60
21811;DHT22;11067;48.788;9.208;2023-03-18T11:15:51;17.80;96.70
21811;DHT22;11067;48.788;9.208;2023-03-18T11:18:21;17.80;96.20
21811;DHT22;11067;48.788;9.208;2023-03-18T11:20:54;18.00;99.40
21811;DHT22;11067;48.788;9.208;2023-03-18T11:23:37;18.00;92.80
21811;DHT22;11067;48.788;9.208;2023-03-18T11:26:44;18.20;95.10
21811;DHT22;11067;48.788;9.208;2023-03-18T11:29:14;18.30;94.80
21811;DHT22;11067;48.788;9.208;2023-03-18T11:31:51;18.40;95.10
21811;DHT22;11067;48.788;9.208;2023-03-18T11:34:19;18.70;96.80
21811;DHT22;11067;48.788;9.208;2023-03-18T11:36:56;18.80;93.60
21811;DHT22;11067;48.788;9.208;2023-03-18T11:39:24;18.40;92.00
21811;DHT22;11067;48.788;9.208;2023-03-18T11:41:51;18.20;93.70
21811;DHT22;11067;48.788;9.208;2023-03-18T11:44:23;18.60;91.60
21811;DHT22;11067;48.788;9.208;2023-03-18T11:47:00;19.00;89.00
21811;DHT22;11067;48.788;9.208;2023-03-18T11:49:27;18.90;83.30
21811;DHT22;11067;48.788;9.208;2023-03-18T11:52:20;18.30;81.40
21811;DHT22;11067;48.788;9.208;2023-03-18T12:00:32;19.00;81.80
21811;DHT22;11067;48.788;9.208;2023-03-18T12:06:19;19.20;78.20
21811;DHT22;11067;48.788;9.208;2023-03-18T12:14:12;19.30;72.20
21811;DHT22;11067;48.788;9.208;2023-03-18T12:19:41;19.10;72.90
21811;DHT22;11067;48.788;9.208;2023-03-18T12:25:05;19.50;74.30
21811;DHT22;11067;48.788;9.208;2023-03-18T12:27:37;19.60;77.00
21811;DHT22;11067;48.788;9.208;2023-03-18T12:41:12;19.90;71.30
21811;DHT22;11067;48.788;9.208;2023-03-18T12:43:50;19.90;75.20
21811;DHT22;11067;48.788;9.208;2023-03-18T12:49:19;19.90;70.90
21811;DHT22;11067;48.788;9.208;2023-03-18T12:51:56;19.90;71.40
21811;DHT22;11067;48.788;9.208;2023-03-18T12:54:28;20.00;70.70
21811;DHT22;11067;48.788;9.208;2023-03-18T12:57:01;20.10;70.90
21811;DHT22;11067;48.788;9.208;2023-03-18T12:59:37;20.10;71.30
21811;DHT22;11067;48.788;9.208;2023-03-18T13:02:27;20.00;68.80
21811;DHT22;11067;48.788;9.208;2023-03-18T13:05:01;20.00;68.90
21811;DHT22;11067;48.788;9.208;2023-03-18T13:08:03;19.90;67.60
21811;DHT22;11067;48.788;9.208;2023-03-18T13:10:33;20.10;68.20
21811;DHT22;11067;48.788;9.208;2023-03-18T13:13:03;20.10;68.10
21811;DHT22;11067;48.788;9.208;2023-03-18T13:15:43;19.90;69.50
21811;DHT22;11067;48.788;9.208;2023-03-18T13:18:27;20.20;67.90
21811;DHT22;11067;48.788;9.208;2023-03-18T13:20:56;20.20;66.00
21811;DHT22;11067;48.788;9.208;2023-03-18T13:23:54;20.30;65.80
21811;DHT22;11067;48.788;9.208;2023-03-18T13:43:33;20.40;63.80
21811;DHT22;11067;48.788;9.208;2023-03-18T13:46:02;20.40;63.00
21811;DHT22;11067;48.788;9.208;2023-03-18T13:48:31;20.40;62.40
21811;DHT22;11067;48.788;9.208;2023-03-18T13:50:58;20.50;61.20
21811;DHT22;11067;48.788;9.208;2023-03-18T13:53:30;20.40;60.20
21811;DHT22;11067;48.788;9.208;2023-03-18T13:58:47;20.60;57.60
21811;DHT22;11067;48.788;9.208;2023-03-18T14:01:34;20.60;58.10
21811;DHT22;11067;48.788;9.208;2023-03-18T14:04:03;20.50;58.80
21811;DHT22;11067;48.788;9.208;2023-03-18T14:09:33;20.50;56.90
21811;DHT22;11067;48.788;9.208;2023-03-18T14:12:16;20.50;56.60
21811;DHT22;11067;48.788;9.208;2023-03-18T14:14:54;20.50;57.60
21811;DHT22;11067;48.788;9.208;2023-03-18T14:17:28;20.70;57.00
21811;DHT22;11067;48.788;9.208;2023-03-18T14:20:05;20.40;56.60
21811;DHT22;11067;48.788;9.208;2023-03-18T14:22:37;20.40;57.60
21811;DHT22;11067;48.788;9.208;2023-03-18T14:27:53;20.60;56.30
21811;DHT22;11067;48.788;9.208;2023-03-18T14:33:03;20.50;57.00
21811;DHT22;11067;48.788;9.208;2023-03-18T14:35:33;20.50;57.50
21811;DHT22;11067;48.788;9.208;2023-03-18T14:40:39;20.30;55.50
21811;DHT22;11067;48.788;9.208;2023-03-18T14:43:15;20.10;55.70
21811;DHT22;11067;48.788;9.208;2023-03-18T14:45:43;20.10;55.70
21811;DHT22;11067;48.788;9.208;2023-03-18T14:48:19;20.10;55.70
21811;DHT22;11067;48.788;9.208;2023-03-18T14:50:51;20.10;55.80
21811;DHT22;11067;48.788;9.208;2023-03-18T14:53:34;20.10;55.50
21811;DHT22;11067;48.788;9.208;2023-03-18T14:56:02;20.10;55.10
21811;DHT22;11067;48.788;9.208;2023-03-18T14:58:28;20.10;56.00
21811;DHT22;11067;48.788;9.208;2023-03-18T15:01:07;20.10;55.10
21811;DHT22;11067;48.788;9.208;2023-03-18T15:03:38;20.00;55.30
21811;DHT22;11067;48.788;9.208;2023-03-18T15:06:05;20.10;55.50
21811;DHT22;11067;48.788;9.208;2023-03-18T15:08:34;20.00;55.40
21811;DHT22;11067;48.788;9.208;2023-03-18T15:11:02;20.10;54.70
21811;DHT22;11067;48.788;9.208;2023-03-18T15:13:34;20.00;54.90
21811;DHT22;11067;48.788;9.208;2023-03-18T15:16:03;20.10;55.10
21811;DHT22;11067;48.788;9.208;2023-03-18T15:18:36;20.10;54.30
21811;DHT22;11067;48.788;9.208;2023-03-18T15:21:12;20.10;55.10
21811;DHT22;11067;48.788;9.208;2023-03-18T15:23:45;19.90;55.10
21811;DHT22;11067;48.788;9.208;2023-03-18T15:26:28;19.80;55.30
21811;DHT22;11067;48.788;9.208;2023-03-18T15:28:56;19.70;54.40
21811;DHT22;11067;48.788;9.208;2023-03-18T15:31:24;19.70;55.10
21811;DHT22;11067;48.788;9.208;2023-03-18T15:34:14;19.70;63.80
21811;DHT22;11067;48.788;9.208;2023-03-18T15:36:43;19.20;71.80
21811;DHT22;11067;48.788;9.208;2023-03-18T15:41:57;19.00;92.30
21811;DHT22;11067;48.788;9.208;2023-03-18T15:44:31;18.90;95.00
21811;DHT22;11067;48.788;9.208;2023-03-18T15:47:10;18.80;96.50
21811;DHT22;11067;48.788;9.208;2023-03-18T15:49:57;18.70;97.60
21811;DHT22;11067;48.788;9.208;2023-03-18T15:52:32;18.60;98.40
21811;DHT22;11067;48.788;9.208;2023-03-18T15:54:59;18.60;99.10
21811;DHT22;11067;48.788;9.208;2023-03-18T15:57:37;18.60;99.20
21811;DHT22;11067;48.788;9.208;2023-03-18T16:00:06;18.30;99.30
21811;DHT22;11067;48.788;9.208;2023-03-18T16:02:34;18.30;99.70
21811;DHT22;11067;48.788;9.208;2023-03-18T16:05:19;18.20;99.90
21811;DHT22;11067;48.788;9.208;2023-03-18T16:07:46;18.30;99.90
21811;DHT22;11067;48.788;9.208;2023-03-18T16:10:13;18.20;99.90
21811;DHT22;11067;48.788;9.208;2023-03-18T16:12:49;18.20;99.90
21811;DHT22;11067;48.788;9.208;2023-03-18T16:15:17;18.10;99.90
21811;DHT22;11067;48.788;9.208;2023-03-18T16:17:53;18.00;99.90
21811;DHT22;11067;48.788;9.208;2023-03-18T16:20:28;18.00;99.90
21811;DHT22;11067;48.788;9.208;2023-03-18T16:22:55;17.90;99.90
21811;DHT22;11067;48.788;9.208;2023-03-18T16:25:22;18.00;99.90
21811;DHT22;11067;48.788;9.208;2023-03-18T16:27:50;17.80;99.90
21811;DHT22;11067;48.788;9.208;2023-03-18T16:30:24;17.70;99.90
21811;DHT22;11067;48.788;9.208;2023-03-18T16:32:51;17.50;99.90
21811;DHT22;11067;48.788;9.208;2023-03-18T16:35:21;17.60;99.90
21811;DHT22;11067;48.788;9.208;2023-03-18T16:37:49;17.50;99.90
21811;DHT22;11067;48.788;9.208;2023-03-18T16:40:26;17.40;99.90
21811;DHT22;11067;48.788;9.208;2023-03-18T16:42:51;17.40;99.90
21811;DHT22;11067;48.788;9.208;2023-03-18T16:45:19;17.40;99.90
21811;DHT22;11067;48.788;9.208;2023-03-18T16:47:48;17.10;99.90
21811;DHT22;11067;48.788;9.208;2023-03-18T16:50:20;17.10;99.90
21811;DHT22;11067;48.788;9.208;2023-03-18T16:52:46;17.00;99.90
21811;DHT22;11067;48.788;9.208;2023-03-18T16:55:14;17.00;99.90
21811;DHT22;11067;48.788;9.208;2023-03-18T16:57:46;17.00;99.90
21811;DHT22;11067;48.788;9.208;2023-03-18T17:00:17;16.90;99.90
21811;DHT22;11067;48.788;9.208;2023-03-18T17:02:44;16.80;99.90
21811;DHT22;11067;48.788;9.208;2023-03-18T17:05:13;16.80;99.90
21811;DHT22;11067;48.788;9.208;2023-03-18T17:07:40;16.90;99.90
21811;DHT22;11067;48.788;9.208;2023-03-18T17:10:06;16.80;99.90
21811;DHT22;11067;48.788;9.208;2023-03-18T17:12:33;16.70;99.90
21811;DHT22;11067;48.788;9.208;2023-03-18T17:14:59;16.60;99.90
21811;DHT22;11067;48.788;9.208;2023-03-18T17:17:28;16.60;99.90
21811;DHT22;11067;48.788;9.208;2023-03-18T17:19:55;16.60;99.90